Time;durP1;ratioP1;P1;durP2;ratioP2;P2;SDS_P1;SDS_P2;PMS_P1;PMS_P2;Temp;Humidity;BMP_temperature;BMP_pressure;BME280_temperature;BME280_humidity;BME280_pressure;Samples;Min_cycle;Max_cycle;Signal;HPM_P1;HPM_P2
2023/03/14 00:00:38;;;;;;;2.10;0.57;;;;;;;6.42;100.00;91475.94;2509129;23;20047;-86
2023/03/14 00:01:47;;;;;;;1.88;0.50;;;;;;;6.41;100.00;91485.03;2486937;23;20367;-86
2023/03/14 00:02:57;;;;;;;0.98;0.40;;;;;;;6.35;100.00;91484.84;2477191;23;20431;-87
2023/03/14 00:04:00;;;;;;;2.53;0.57;;;;;;;6.34;100.00;91485.28;2489366;23;20004;-86
2023/03/14 00:05:09;;;;;;;0.50;0.50;;;;;;;6.40;100.00;91486.22;2497321;23;20003;-88
2023/03/14 00:06:18;;;;;;;0.70;0.50;;;;;;;6.31;100.00;91490.25;2509306;23;20015;-88
2023/03/14 00:07:24;;;;;;;1.05;0.57;;;;;;;6.47;100.00;91494.69;2499193;23;20011;-87
2023/03/14 00:08:27;;;;;;;0.73;0.40;;;;;;;6.42;100.00;91489.19;2498656;23;20011;-90
2023/03/14 00:09:30;;;;;;;0.88;0.40;;;;;;;6.46;100.00;91493.22;2509627;23;20007;-86
2023/03/14 00:10:37;;;;;;;0.43;0.43;;;;;;;6.31;100.00;91484.94;2509021;23;20006;-87
2023/03/14 00:11:39;;;;;;;2.10;0.50;;;;;;;6.29;100.00;91495.25;2498581;23;20011;-90
2023/03/14 00:12:44;;;;;;;1.52;0.50;;;;;;;6.55;100.00;91495.94;2497633;23;20014;-89
2023/03/14 00:13:57;;;;;;;1.10;0.38;;;;;;;6.52;100.00;91488.84;2497891;23;20364;-89
2023/03/14 00:15:03;;;;;;;0.88;0.50;;;;;;;6.38;100.00;91497.25;2500096;23;20003;-88
2023/03/14 00:16:15;;;;;;;2.15;0.40;;;;;;;6.35;100.00;91510.63;2498114;23;20036;-85
2023/03/14 00:17:25;;;;;;;2.25;0.63;;;;;;;6.30;100.00;91511.94;2499627;23;20501;-88
2023/03/14 00:18:32;;;;;;;0.40;0.40;;;;;;;6.30;100.00;91519.88;2497585;23;20362;-87
2023/03/14 00:19:40;;;;;;;2.15;0.30;;;;;;;6.31;100.00;91518.72;2486847;23;20003;-89
2023/03/14 00:20:47;;;;;;;2.08;0.40;;;;;;;6.24;100.00;91524.25;2488904;23;20649;-87
2023/03/14 00:21:48;;;;;;;1.27;0.32;;;;;;;6.46;100.00;91524.31;2497195;23;20025;-85
2023/03/14 00:22:49;;;;;;;0.30;0.30;;;;;;;6.32;100.00;91536.09;2486081;23;20008;-90
2023/03/14 00:23:51;;;;;;;0.70;0.40;;;;;;;6.27;100.00;91534.72;2509473;23;20394;-88
2023/03/14 00:24:52;;;;;;;0.40;0.40;;;;;;;6.31;100.00;91539.94;2497586;23;20046;-89
2023/03/14 00:25:53;;;;;;;0.70;0.40;;;;;;;6.21;100.00;91541.03;2497592;23;20574;-90
2023/03/14 00:26:54;;;;;;;0.40;0.30;;;;;;;6.38;100.00;91555.66;2510147;23;19998;-89
2023/03/14 00:27:55;;;;;;;0.55;0.30;;;;;;;6.24;100.00;91551.53;2497479;23;20011;-88
2023/03/14 00:28:56;;;;;;;0.22;0.22;;;;;;;6.14;100.00;91557.13;2497555;23;20010;-88
2023/03/14 00:29:57;;;;;;;1.15;0.30;;;;;;;6.13;100.00;91558.31;2497607;23;20106;-87
2023/03/14 00:30:58;;;;;;;0.50;0.38;;;;;;;6.10;100.00;91567.13;2486087;23;20598;-88
2023/03/14 00:31:59;;;;;;;0.30;0.30;;;;;;;6.18;100.00;91558.53;2475060;23;20012;-85
2023/03/14 00:33:00;;;;;;;2.75;0.32;;;;;;;6.17;100.00;91553.66;2486538;23;20016;-89
2023/03/14 00:34:01;;;;;;;0.30;0.30;;;;;;;6.18;100.00;91553.22;2498436;23;20008;-90
2023/03/14 00:35:03;;;;;;;0.30;0.30;;;;;;;6.29;100.00;91564.25;2509703;23;20422;-88
2023/03/14 00:36:11;;;;;;;0.60;0.30;;;;;;;6.36;100.00;91565.94;2521437;23;20014;-87
2023/03/14 00:37:12;;;;;;;1.35;0.32;;;;;;;6.23;100.00;91565.97;2520253;23;20162;-86
2023/03/14 00:38:13;;;;;;;0.57;0.30;;;;;;;6.29;100.00;91574.13;2509379;23;20307;-86
2023/03/14 00:39:14;;;;;;;2.78;0.30;;;;;;;6.17;100.00;91572.97;2498100;23;20007;-87
2023/03/14 00:40:15;;;;;;;0.80;0.50;;;;;;;6.16;100.00;91571.47;2498218;23;20098;-86
2023/03/14 00:41:19;;;;;;;1.77;0.30;;;;;;;6.24;100.00;91574.66;2509923;23;20045;-88
2023/03/14 00:42:20;;;;;;;0.55;0.30;;;;;;;6.14;100.00;91565.84;2509810;23;20015;-87
2023/03/14 00:43:22;;;;;;;1.45;0.63;;;;;;;6.18;100.00;91568.38;2498027;23;20649;-88
2023/03/14 00:44:23;;;;;;;0.47;0.30;;;;;;;6.16;100.00;91565.44;2498490;23;20011;-87
2023/03/14 00:45:25;;;;;;;0.82;0.30;;;;;;;6.12;100.00;91560.22;2497563;23;20011;-85
2023/03/14 00:46:28;;;;;;;0.30;0.30;;;;;;;6.10;100.00;91556.50;2497568;23;20007;-90
2023/03/14 00:47:29;;;;;;;2.03;0.30;;;;;;;6.12;100.00;91559.50;2509447;23;20018;-88
2023/03/14 00:48:30;;;;;;;2.08;0.40;;;;;;;6.08;100.00;91556.19;2509276;23;20425;-88
2023/03/14 00:49:31;;;;;;;1.17;0.38;;;;;;;6.35;100.00;91555.75;2497665;23;20003;-86
2023/03/14 00:50:32;;;;;;;1.95;0.30;;;;;;;6.25;100.00;91546.97;2485669;23;20011;-86
2023/03/14 00:51:33;;;;;;;1.15;0.38;;;;;;;6.22;100.00;91547.81;2497418;23;20106;-86
2023/03/14 00:52:34;;;;;;;1.27;0.45;;;;;;;6.26;100.00;91546.53;2486104;23;20455;-86
2023/03/14 00:53:36;;;;;;;1.50;0.40;;;;;;;6.27;100.00;91542.69;2497598;23;20028;-88
2023/03/14 00:54:37;;;;;;;1.65;0.30;;;;;;;6.42;100.00;91539.63;2497660;23;20024;-89
2023/03/14 00:55:40;;;;;;;5.32;0.40;;;;;;;6.30;100.00;91538.47;2497842;23;20035;-86
2023/03/14 00:56:41;;;;;;;2.20;0.40;;;;;;;6.20;100.00;91545.59;2497717;23;20018;-87
2023/03/14 00:57:42;;;;;;;0.73;0.30;;;;;;;6.13;100.00;91537.84;2486854;23;20003;-85
2023/03/14 00:58:43;;;;;;;0.43;0.30;;;;;;;6.16;100.00;91534.34;2493156;23;19992;-84
2023/03/14 00:59:44;;;;;;;1.20;0.30;;;;;;;6.27;100.00;91528.69;2495514;23;20015;-85
2023/03/14 01:00:45;;;;;;;3.30;0.40;;;;;;;6.18;100.00;91520.63;2485376;23;20000;-84
2023/03/14 01:01:46;;;;;;;0.63;0.30;;;;;;;6.14;100.00;91520.00;2485323;23;20012;-88
2023/03/14 01:02:47;;;;;;;0.98;0.30;;;;;;;6.15;100.00;91522.25;2496521;23;19995;-84
2023/03/14 01:03:52;;;;;;;0.32;0.20;;;;;;;6.15;100.00;91527.56;2507823;23;20003;-88
2023/03/14 01:04:53;;;;;;;2.15;0.35;;;;;;;6.15;100.00;91521.50;2502925;23;20043;-89
2023/03/14 01:05:54;;;;;;;0.25;0.25;;;;;;;6.16;100.00;91515.78;2500010;23;20003;-89
2023/03/14 01:06:56;;;;;;;0.30;0.30;;;;;;;6.13;100.00;91510.56;2499629;23;20015;-87
2023/03/14 01:07:57;;;;;;;2.38;0.40;;;;;;;6.09;100.00;91508.03;2499937;23;20007;-85
2023/03/14 01:08:59;;;;;;;0.55;0.30;;;;;;;6.05;100.00;91502.81;2499091;23;20435;-87
2023/03/14 01:10:00;;;;;;;0.63;0.30;;;;;;;6.07;100.00;91506.97;2498714;23;20011;-87
2023/03/14 01:11:09;;;;;;;0.57;0.40;;;;;;;6.10;100.00;91500.81;2498745;23;19999;-88
2023/03/14 01:12:10;;;;;;;1.02;0.20;;;;;;;6.07;100.00;91506.97;2500640;23;20090;-87
2023/03/14 01:13:11;;;;;;;0.30;0.30;;;;;;;6.05;100.00;91500.16;2498603;23;20007;-85
2023/03/14 01:14:13;;;;;;;0.75;0.30;;;;;;;6.08;100.00;91492.53;2510605;23;20017;-86
2023/03/14 01:15:14;;;;;;;0.17;0.13;;;;;;;6.11;100.00;91504.97;2509927;23;20007;-86
2023/03/14 01:16:16;;;;;;;0.98;0.55;;;;;;;6.03;100.00;91491.91;2486203;23;20048;-85
2023/03/14 01:17:17;;;;;;;2.08;0.40;;;;;;;6.17;100.00;91500.59;2498509;23;20018;-88
2023/03/14 01:18:19;;;;;;;0.40;0.30;;;;;;;6.22;100.00;91508.75;2509566;23;20015;-87
2023/03/14 01:19:20;;;;;;;0.20;0.20;;;;;;;6.20;100.00;91507.72;2497765;23;20015;-84
2023/03/14 01:20:21;;;;;;;1.48;0.35;;;;;;;6.11;100.00;91512.91;2497328;23;20003;-89
2023/03/14 01:21:31;;;;;;;0.50;0.40;;;;;;;6.05;100.00;91508.13;2509824;23;20011;-89
2023/03/14 01:22:32;;;;;;;;;;;;;;;6.08;100.00;91503.16;2499772;23;20347;-88
2023/03/14 01:23:33;;;;;;;0.45;0.20;;;;;;;6.06;100.00;91490.31;2509328;23;19906;-87
2023/03/14 01:24:36;;;;;;;0.93;0.40;;;;;;;6.01;100.00;91485.53;2509195;23;20081;-86
2023/03/14 01:25:41;;;;;;;0.40;0.38;;;;;;;6.01;100.00;91477.59;2510021;23;20010;-86
2023/03/14 01:26:42;;;;;;;2.03;0.20;;;;;;;6.13;100.00;91482.13;2497652;23;20007;-86
2023/03/14 01:27:43;;;;;;;0.50;0.30;;;;;;;6.19;100.00;91488.41;2497702;23;20007;-88
2023/03/14 01:28:46;;;;;;;0.30;0.22;;;;;;;6.19;100.00;91477.78;2509199;23;20063;-87
2023/03/14 01:29:47;;;;;;;1.13;0.20;;;;;;;6.03;100.00;91483.22;2510007;23;20003;-89
2023/03/14 01:30:50;;;;;;;0.60;0.30;;;;;;;6.12;100.00;91480.66;2521333;23;20006;-86
2023/03/14 01:31:51;;;;;;;0.43;0.30;;;;;;;6.05;100.00;91481.59;2509427;23;20094;-85
2023/03/14 01:32:51;;;;;;;2.65;0.30;;;;;;;5.97;100.00;91480.38;2485878;23;20015;-86
2023/03/14 01:33:53;;;;;;;0.40;0.30;;;;;;;6.23;100.00;91483.72;2486015;23;20003;-88
2023/03/14 01:34:54;;;;;;;0.85;0.28;;;;;;;6.15;100.00;91492.34;2509051;23;20014;-88
2023/03/14 01:35:55;;;;;;;0.55;0.40;;;;;;;6.14;100.00;91474.91;2497183;23;20007;-87
2023/03/14 01:36:55;;;;;;;0.98;0.20;;;;;;;6.10;100.00;91490.19;2497573;23;20007;-86
2023/03/14 01:37:57;;;;;;;1.73;0.28;;;;;;;6.22;100.00;91484.13;2497565;23;20037;-86
2023/03/14 01:38:57;;;;;;;0.55;0.30;;;;;;;6.12;100.00;91496.56;2474061;23;20079;-88
2023/03/14 01:39:59;;;;;;;0.95;0.40;;;;;;;6.07;100.00;91493.72;2485708;23;20032;-88
2023/03/14 01:41:00;;;;;;;0.95;0.35;;;;;;;6.17;100.00;91492.63;2485430;23;20026;-88
2023/03/14 01:42:01;;;;;;;0.82;0.30;;;;;;;6.12;100.00;91493.19;2497455;23;20027;-87
2023/03/14 01:43:14;;;;;;;0.60;0.40;;;;;;;6.04;100.00;91490.00;2497506;23;20010;-87
2023/03/14 01:44:15;;;;;;;0.47;0.32;;;;;;;6.10;100.00;91490.19;2509045;23;20026;-87
2023/03/14 01:45:53;;;;;;;0.55;0.30;;;;;;;6.16;100.00;91483.19;2497210;23;20014;-87
2023/03/14 01:46:54;;;;;;;1.00;0.25;;;;;;;6.13;100.00;91494.66;2516182;23;20477;-86
2023/03/14 01:47:55;;;;;;;1.00;0.50;;;;;;;6.00;100.00;91484.06;2509236;23;20095;-87
2023/03/14 01:49:03;;;;;;;2.05;0.40;;;;;;;5.98;100.00;91497.75;2497045;23;20004;-85
2023/03/14 01:50:10;;;;;;;1.70;0.40;;;;;;;6.00;100.00;91484.78;2488074;23;20004;-88
2023/03/14 01:51:17;;;;;;;1.60;0.30;;;;;;;6.12;100.00;91472.69;2498572;23;20015;-87
2023/03/14 01:52:49;;;;;;;3.33;0.70;;;;;;;6.06;100.00;91463.81;2498199;23;20415;-87
2023/03/14 01:53:53;;;;;;;2.25;0.50;;;;;;;6.00;100.00;91458.28;2497558;23;20018;-85
2023/03/14 01:54:59;;;;;;;1.55;0.50;;;;;;;6.24;100.00;91466.63;2498732;23;20324;-87
2023/03/14 01:56:01;;;;;;;0.70;0.45;;;;;;;6.13;100.00;91465.47;2497324;23;20023;-87
2023/03/14 01:57:20;;;;;;;2.60;0.50;;;;;;;6.12;100.00;91467.38;2498031;23;20407;-89
2023/03/14 01:58:21;;;;;;;1.15;0.40;;;;;;;6.03;100.00;91456.69;2505355;23;20041;-90
2023/03/14 01:59:23;;;;;;;1.20;0.50;;;;;;;5.94;100.00;91469.88;2474067;23;20041;-87
2023/03/14 02:00:25;;;;;;;1.98;0.57;;;;;;;6.22;100.00;91457.59;2497616;23;19999;-86
2023/03/14 02:01:26;;;;;;;2.53;0.47;;;;;;;6.10;100.00;91450.41;2509201;23;20058;-85
2023/03/14 02:02:28;;;;;;;1.65;0.60;;;;;;;6.27;100.00;91463.09;2497238;23;20667;-85
2023/03/14 02:03:34;;;;;;;3.90;0.50;;;;;;;6.04;100.00;91448.31;2497213;23;20387;-87
2023/03/14 02:04:36;;;;;;;1.13;0.50;;;;;;;6.47;100.00;91452.22;2498134;23;20031;-86
2023/03/14 02:05:40;;;;;;;1.75;0.50;;;;;;;6.24;100.00;91456.00;2497350;23;20496;-87
2023/03/14 02:07:08;;;;;;;1.08;0.45;;;;;;;6.22;100.00;91462.91;2486748;23;20023;-85
2023/03/14 02:08:14;;;;;;;2.30;0.60;;;;;;;5.88;100.00;91474.19;2502946;23;20011;-86
2023/03/14 02:09:16;;;;;;;0.60;0.38;;;;;;;5.95;100.00;91476.66;2486830;23;20079;-91
2023/03/14 02:10:21;;;;;;;1.38;0.52;;;;;;;5.88;100.00;91466.22;2474415;23;20405;-85
2023/03/14 02:11:26;;;;;;;6.38;0.77;;;;;;;6.02;100.00;91463.19;2475638;23;20015;-90
2023/03/14 02:12:28;;;;;;;4.15;0.47;;;;;;;6.00;100.00;91460.19;2487363;23;20015;-87
2023/03/14 02:13:29;;;;;;;2.80;0.40;;;;;;;5.91;100.00;91462.72;2509491;23;20082;-89
2023/03/14 02:14:32;;;;;;;0.38;0.38;;;;;;;5.78;100.00;91465.38;2498055;23;20007;-90
2023/03/14 02:15:34;;;;;;;3.78;0.45;;;;;;;5.85;100.00;91465.19;2498212;23;20435;-88
2023/03/14 02:16:35;;;;;;;2.70;0.70;;;;;;;5.81;100.00;91464.53;2497712;23;20004;-88
2023/03/14 02:30:13;;;;;;;;;;;;;;;5.68;100.00;91434.66;2599008;22;20489;-81
2023/03/14 02:31:14;;;;;;;2.45;0.65;;;;;;;5.62;100.00;91423.09;2571201;23;19970;-81
2023/03/14 02:32:17;;;;;;;1.85;0.60;;;;;;;5.59;100.00;91440.59;2546219;23;20080;-82
2023/03/14 02:33:20;;;;;;;0.82;0.40;;;;;;;5.58;100.00;91430.44;2559688;23;20001;-82
2023/03/14 02:34:22;;;;;;;2.47;0.52;;;;;;;5.54;100.00;91422.56;2559394;23;20107;-83
2023/03/14 02:35:27;;;;;;;2.63;0.52;;;;;;;5.55;100.00;91435.41;2571352;23;20011;-82
2023/03/14 02:36:29;;;;;;;1.40;0.55;;;;;;;5.40;100.00;91429.06;2559895;23;20015;-84
2023/03/14 02:37:38;;;;;;;5.40;0.60;;;;;;;5.26;100.00;91424.88;2547235;23;20465;-84
2023/03/14 02:38:51;;;;;;;0.73;0.40;;;;;;;5.37;100.00;91432.53;2562072;23;20009;-84
2023/03/14 02:39:53;;;;;;;2.45;0.75;;;;;;;5.47;100.00;91430.72;2560713;23;20407;-84
2023/03/14 02:40:54;;;;;;;3.25;0.60;;;;;;;5.49;100.00;91425.75;2559110;23;20013;-84
2023/03/14 02:41:54;;;;;;;2.50;0.68;;;;;;;5.33;100.00;91421.31;2545958;23;20054;-82
2023/03/14 02:42:55;;;;;;;2.17;0.60;;;;;;;5.46;100.00;91419.41;2546698;23;20037;-84
2023/03/14 02:43:56;;;;;;;5.60;0.50;;;;;;;5.62;100.00;91407.94;2558979;23;20009;-83
2023/03/14 02:45:09;;;;;;;1.27;0.60;;;;;;;5.46;100.00;91414.09;2558978;23;20023;-84
2023/03/14 02:46:18;;;;;;;3.28;0.65;;;;;;;5.32;100.00;91403.94;2574049;23;20028;-82
2023/03/14 02:47:22;;;;;;;4.40;0.77;;;;;;;5.19;100.00;91382.72;2560318;23;20059;-83
2023/03/14 02:48:28;;;;;;;3.47;0.50;;;;;;;5.20;100.00;91404.66;2559395;23;20094;-82
2023/03/14 02:49:31;;;;;;;3.08;0.60;;;;;;;5.28;100.00;91393.44;2548618;23;20076;-82
2023/03/14 02:50:34;;;;;;;1.42;0.50;;;;;;;5.14;100.00;91395.78;2546802;23;20009;-83
2023/03/14 02:51:35;;;;;;;4.57;1.25;;;;;;;5.07;100.00;91401.25;2546722;23;20376;-84
2023/03/14 02:52:37;;;;;;;3.97;0.70;;;;;;;5.15;100.00;91397.25;2546141;23;20001;-85
2023/03/14 02:53:38;;;;;;;2.60;0.70;;;;;;;5.29;100.00;91400.22;2546808;23;20408;-85
2023/03/14 02:54:39;;;;;;;1.30;0.50;;;;;;;5.35;100.00;91389.81;2547160;23;20440;-85
2023/03/14 02:55:45;;;;;;;2.67;0.60;;;;;;;5.41;100.00;91398.00;2546383;23;20005;-84
2023/03/14 02:56:46;;;;;;;2.60;0.60;;;;;;;5.57;100.00;91397.84;2559276;23;20019;-84
2023/03/14 02:57:47;;;;;;;5.25;0.82;;;;;;;5.40;100.00;91404.44;2571440;23;20031;-84
2023/03/14 02:58:48;;;;;;;2.55;0.75;;;;;;;5.32;100.00;91395.97;2546396;23;20012;-82
2023/03/14 02:59:50;;;;;;;4.40;0.70;;;;;;;5.17;100.00;91402.84;2546479;23;20005;-83
2023/03/14 03:00:51;;;;;;;3.30;0.75;;;;;;;5.18;100.00;91396.38;2546072;23;20001;-84
2023/03/14 03:01:52;;;;;;;2.92;0.60;;;;;;;5.08;100.00;91390.25;2558068;23;20005;-82
2023/03/14 03:02:53;;;;;;;3.30;0.63;;;;;;;5.36;100.00;91393.97;2558465;23;20032;-82
2023/03/14 03:03:54;;;;;;;4.47;1.27;;;;;;;5.14;100.00;91382.53;2546151;23;20009;-84
2023/03/14 03:04:55;;;;;;;1.80;0.63;;;;;;;5.15;100.00;91391.94;2546318;23;20005;-82
2023/03/14 03:05:58;;;;;;;2.33;0.60;;;;;;;5.10;100.00;91385.28;2558575;23;20059;-82
2023/03/14 03:06:59;;;;;;;3.08;0.82;;;;;;;5.01;100.00;91375.31;2558951;23;20502;-84
2023/03/14 03:08:01;;;;;;;3.25;0.52;;;;;;;5.02;100.00;91389.28;2558856;23;20296;-85
2023/03/14 03:09:03;;;;;;;2.92;0.80;;;;;;;5.04;100.00;91373.72;2546600;23;20005;-84
2023/03/14 03:10:05;;;;;;;3.67;0.60;;;;;;;5.03;100.00;91380.19;2559021;23;20004;-84
2023/03/14 03:11:07;;;;;;;0.95;0.50;;;;;;;5.08;100.00;91381.56;2558464;23;19996;-83
2023/03/14 03:12:08;;;;;;;3.72;0.90;;;;;;;5.23;100.00;91377.34;2546203;23;20242;-85
2023/03/14 03:13:10;;;;;;;2.03;0.63;;;;;;;5.31;100.00;91357.38;2545941;23;20037;-83
2023/03/14 03:14:11;;;;;;;1.02;0.47;;;;;;;5.39;100.00;91363.22;2546703;23;20132;-85
2023/03/14 03:15:13;;;;;;;2.35;0.90;;;;;;;5.42;100.00;91367.69;2558769;23;20016;-84
2023/03/14 03:16:14;;;;;;;3.00;0.60;;;;;;;5.21;100.00;91363.75;2546492;23;20028;-84
2023/03/14 03:17:16;;;;;;;3.50;0.93;;;;;;;5.37;100.00;91368.22;2546402;23;20015;-84
2023/03/14 03:18:17;;;;;;;3.92;0.70;;;;;;;5.50;100.00;91367.03;2570729;23;20015;-84
2023/03/14 03:19:19;;;;;;;3.50;1.13;;;;;;;5.25;100.00;91359.09;2558752;23;20011;-84
2023/03/14 03:20:20;;;;;;;3.47;0.90;;;;;;;5.29;100.00;91368.41;2570801;23;20352;-84
2023/03/14 03:21:23;;;;;;;4.10;0.88;;;;;;;5.17;100.00;91355.91;2571021;23;20340;-84
2023/03/14 03:22:24;;;;;;;3.05;0.60;;;;;;;5.13;100.00;91354.53;2546192;23;20527;-82
2023/03/14 03:23:25;;;;;;;3.65;0.90;;;;;;;5.29;100.00;91344.59;2558617;23;20024;-84
2023/03/14 03:24:27;;;;;;;3.15;0.70;;;;;;;5.31;100.00;91346.78;2558557;23;20001;-84
2023/03/14 03:25:28;;;;;;;2.10;0.68;;;;;;;5.14;100.00;91350.75;2558794;23;20341;-83
2023/03/14 03:26:29;;;;;;;2.50;0.73;;;;;;;5.07;100.00;91350.94;2558653;23;20015;-82
2023/03/14 03:27:31;;;;;;;2.75;0.70;;;;;;;4.98;100.00;91338.34;2571321;23;20267;-83
2023/03/14 03:28:32;;;;;;;5.15;0.70;;;;;;;4.90;100.00;91345.75;2570565;23;20004;-85
2023/03/14 03:29:33;;;;;;;2.13;0.90;;;;;;;4.90;100.00;91351.03;2558878;23;20476;-85
2023/03/14 03:30:41;;;;;;;3.85;0.80;;;;;;;4.86;100.00;91347.75;2557164;23;20001;-85
2023/03/14 03:31:42;;;;;;;3.58;0.80;;;;;;;5.04;100.00;91345.31;2558246;23;20005;-85
2023/03/14 03:32:43;;;;;;;5.00;0.75;;;;;;;5.05;100.00;91346.09;2568217;23;20009;-84
2023/03/14 03:33:44;;;;;;;2.65;0.60;;;;;;;5.36;100.00;91346.28;2568438;23;20004;-84
2023/03/14 03:34:45;;;;;;;5.70;0.68;;;;;;;5.30;100.00;91340.75;2556146;23;20033;-84
2023/03/14 03:35:49;;;;;;;2.28;0.70;;;;;;;5.08;100.00;91337.28;2568820;23;20032;-84
2023/03/14 03:36:50;;;;;;;3.90;0.73;;;;;;;5.04;100.00;91340.03;2569028;23;20011;-85
2023/03/14 03:37:51;;;;;;;3.17;0.60;;;;;;;4.96;100.00;91336.13;2556135;23;20005;-83
2023/03/14 03:38:52;;;;;;;4.28;0.68;;;;;;;4.95;100.00;91333.88;2555711;23;20008;-84
2023/03/14 03:39:53;;;;;;;2.47;0.60;;;;;;;4.92;100.00;91340.06;2568688;22;20032;-84
2023/03/14 03:40:54;;;;;;;2.38;0.60;;;;;;;5.09;100.00;91338.75;2580512;23;20107;-85
2023/03/14 03:41:55;;;;;;;3.67;0.68;;;;;;;4.98;100.00;91339.09;2555670;23;20001;-85
2023/03/14 03:42:56;;;;;;;1.42;0.70;;;;;;;5.02;100.00;91336.34;2555988;23;20005;-84
2023/03/14 03:43:57;;;;;;;1.00;0.35;;;;;;;5.08;100.00;91342.56;2567894;22;20008;-85
2023/03/14 03:44:59;;;;;;;1.88;0.60;;;;;;;4.97;100.00;91332.31;2581132;22;20004;-84
2023/03/14 03:46:06;;;;;;;4.10;0.80;;;;;;;5.04;100.00;91321.50;2568715;23;20494;-84
2023/03/14 03:47:07;;;;;;;4.40;0.65;;;;;;;5.03;100.00;91335.91;2582341;22;20004;-83
2023/03/14 03:48:09;;;;;;;1.50;0.57;;;;;;;5.12;100.00;91327.31;2568323;23;20004;-85
2023/03/14 03:49:10;;;;;;;2.55;0.80;;;;;;;5.42;100.00;91327.94;2568484;22;20004;-84
2023/03/14 03:50:11;;;;;;;4.90;0.82;;;;;;;5.25;100.00;91332.63;2568553;23;20011;-84
2023/03/14 03:51:16;;;;;;;3.90;0.80;;;;;;;5.17;100.00;91334.72;2580333;22;20099;-84
2023/03/14 03:52:17;;;;;;;6.07;0.70;;;;;;;5.11;100.00;91330.41;2592746;22;20008;-84
2023/03/14 03:53:18;;;;;;;2.83;0.63;;;;;;;5.05;100.00;91324.91;2568000;23;20009;-84
2023/03/14 03:54:20;;;;;;;5.03;0.63;;;;;;;5.13;100.00;91325.41;2580669;22;20059;-84
2023/03/14 03:55:21;;;;;;;2.78;0.70;;;;;;;5.09;100.00;91330.06;2567662;23;20104;-85
2023/03/14 03:56:22;;;;;;;1.92;0.60;;;;;;;5.14;100.00;91332.94;2568208;23;20009;-84
2023/03/14 03:57:23;;;;;;;5.75;1.08;;;;;;;5.19;100.00;91327.13;2555794;23;20412;-85
2023/03/14 03:58:24;;;;;;;3.35;1.10;;;;;;;5.34;100.00;91334.63;2555738;23;20368;-85
2023/03/14 03:59:25;;;;;;;2.17;0.60;;;;;;;5.22;100.00;91322.88;2568305;22;20016;-84
2023/03/14 04:00:26;;;;;;;7.10;0.98;;;;;;;5.39;100.00;91332.16;2580499;23;20079;-85
2023/03/14 04:01:27;;;;;;;3.50;1.02;;;;;;;5.21;100.00;91338.00;2567849;22;20446;-84
2023/03/14 04:02:28;;;;;;;4.15;0.68;;;;;;;5.61;100.00;91331.50;2567716;23;20028;-84
2023/03/14 04:03:29;;;;;;;6.07;0.80;;;;;;;5.87;100.00;91329.53;2555634;23;20217;-83
2023/03/14 04:04:30;;;;;;;4.53;0.60;;;;;;;5.93;100.00;91327.84;2567963;23;20087;-84
2023/03/14 04:05:32;;;;;;;3.75;0.80;;;;;;;5.63;100.00;91319.31;2580447;23;20466;-84
2023/03/14 04:06:33;;;;;;;6.10;1.10;;;;;;;5.41;100.00;91316.59;2568115;23;20013;-84
2023/03/14 04:07:35;;;;;;;3.67;0.65;;;;;;;5.37;100.00;91312.59;2556110;23;20356;-84
2023/03/14 04:08:36;;;;;;;4.22;1.45;;;;;;;5.22;100.00;91313.03;2555793;23;20027;-82
2023/03/14 04:09:38;;;;;;;4.10;0.85;;;;;;;5.21;100.00;91316.09;2568027;23;20071;-83
2023/03/14 04:10:39;;;;;;;5.53;0.90;;;;;;;5.17;100.00;91299.56;2580383;22;20000;-82
2023/03/14 04:11:41;;;;;;;4.38;1.02;;;;;;;5.10;100.00;91313.78;2567260;23;20000;-83
2023/03/14 04:12:43;;;;;;;6.25;0.65;;;;;;;5.05;100.00;91306.38;2555980;23;20292;-84
2023/03/14 04:13:44;;;;;;;3.67;0.65;;;;;;;5.11;100.00;91311.88;2568144;23;20091;-83
2023/03/14 04:14:45;;;;;;;2.72;0.85;;;;;;;5.34;100.00;91305.47;2568507;22;20340;-84
2023/03/14 04:15:46;;;;;;;4.95;0.85;;;;;;;5.20;100.00;91306.66;2567992;23;20008;-84
2023/03/14 04:16:47;;;;;;;2.90;0.60;;;;;;;5.15;100.00;91317.81;2555592;23;20038;-85
2023/03/14 04:17:48;;;;;;;3.33;0.65;;;;;;;5.17;100.00;91316.19;2555494;23;20398;-84
2023/03/14 04:18:49;;;;;;;4.82;0.70;;;;;;;5.57;100.00;91326.31;2555629;23;20019;-85
2023/03/14 04:19:53;;;;;;;2.55;0.73;;;;;;;5.33;100.00;91314.59;2568070;23;20000;-85
2023/03/14 04:20:55;;;;;;;2.15;0.55;;;;;;;5.35;100.00;91313.00;2568284;23;20023;-83
2023/03/14 04:21:56;;;;;;;3.28;0.43;;;;;;;5.27;100.00;91314.41;2567809;23;20344;-83
2023/03/14 04:22:58;;;;;;;3.35;0.85;;;;;;;5.38;100.00;91314.06;2555553;23;20001;-83
2023/03/14 04:24:00;;;;;;;2.67;0.70;;;;;;;5.25;100.00;91314.06;2567940;23;20328;-83
2023/03/14 04:25:03;;;;;;;1.98;0.60;;;;;;;5.18;100.00;91314.28;2580527;23;20394;-83
2023/03/14 04:26:04;;;;;;;3.67;0.90;;;;;;;5.20;100.00;91323.31;2569279;22;20053;-85
2023/03/14 04:27:05;;;;;;;3.50;1.10;;;;;;;5.14;100.00;91314.41;2580650;22;20054;-84
2023/03/14 04:28:06;;;;;;;3.13;0.93;;;;;;;5.16;100.00;91311.34;2580957;22;20004;-84
2023/03/14 04:29:07;;;;;;;4.05;1.30;;;;;;;5.19;100.00;91321.09;2568385;23;20084;-83
2023/03/14 04:30:08;;;;;;;2.75;0.90;;;;;;;5.18;100.00;91319.59;2568234;23;20083;-83
2023/03/14 04:31:12;;;;;;;2.22;0.80;;;;;;;5.17;100.00;91310.16;2568236;23;20016;-84
2023/03/14 04:32:13;;;;;;;4.18;1.48;;;;;;;5.28;100.00;91313.97;2568500;22;20012;-84
2023/03/14 04:33:17;;;;;;;3.75;1.17;;;;;;;5.29;100.00;91314.72;2580631;23;20004;-84
2023/03/14 04:34:17;;;;;;;4.43;1.52;;;;;;;5.34;100.00;91311.50;2569121;23;20404;-84
2023/03/14 04:35:18;;;;;;;3.30;1.33;;;;;;;5.29;100.00;91301.47;2555780;23;20005;-83
2023/03/14 04:36:20;;;;;;;2.75;1.20;;;;;;;5.26;100.00;91311.00;2568211;23;20102;-85
2023/03/14 04:37:21;;;;;;;4.38;1.20;;;;;;;5.29;100.00;91314.72;2568144;23;20005;-84
2023/03/14 04:38:22;;;;;;;1.38;0.60;;;;;;;5.53;100.00;91301.81;2568254;22;20083;-84
2023/03/14 04:39:23;;;;;;;1.75;0.50;;;;;;;5.54;100.00;91298.75;2580913;22;20067;-83
2023/03/14 04:40:23;;;;;;;1.67;0.50;;;;;;;5.43;100.00;91305.56;2568233;23;20001;-84
2023/03/14 04:41:25;;;;;;;0.98;0.52;;;;;;;5.39;100.00;91302.28;2555954;23;20037;-84
2023/03/14 04:42:26;;;;;;;3.28;0.70;;;;;;;5.35;100.00;91289.16;2566948;23;20384;-84
2023/03/14 04:43:26;;;;;;;1.10;0.55;;;;;;;5.55;100.00;91297.59;2555444;23;20092;-83
2023/03/14 04:44:27;;;;;;;3.13;0.75;;;;;;;5.75;100.00;91289.38;2568250;23;20001;-83
2023/03/14 04:45:28;;;;;;;1.15;0.75;;;;;;;5.62;100.00;91304.59;2568328;23;20012;-83
2023/03/14 04:46:29;;;;;;;2.10;0.55;;;;;;;5.66;100.00;91304.44;2568297;23;20035;-84
2023/03/14 04:47:30;;;;;;;1.63;0.43;;;;;;;5.46;100.00;91289.56;2568166;23;20004;-84
2023/03/14 04:48:31;;;;;;;4.18;0.70;;;;;;;5.42;100.00;91293.50;2567769;23;20047;-83
2023/03/14 04:49:33;;;;;;;2.65;0.57;;;;;;;5.33;100.00;91274.88;2568332;22;20335;-83
2023/03/14 04:50:33;;;;;;;2.78;1.63;;;;;;;5.23;100.00;91289.94;2580813;23;20003;-85
2023/03/14 04:51:34;;;;;;;2.67;0.60;;;;;;;5.32;100.00;91295.31;2567922;23;20008;-83
2023/03/14 04:52:36;;;;;;;2.40;0.60;;;;;;;5.31;100.00;91291.16;2567446;23;20012;-83
2023/03/14 04:53:37;;;;;;;1.40;0.60;;;;;;;5.46;100.00;91281.63;2580517;22;20011;-83
2023/03/14 04:54:39;;;;;;;4.78;0.60;;;;;;;5.35;100.00;91283.84;2568249;23;20285;-84
2023/03/14 04:55:40;;;;;;;1.38;0.60;;;;;;;5.29;100.00;91277.63;2555740;23;20067;-84
2023/03/14 04:56:41;;;;;;;2.95;0.90;;;;;;;5.41;100.00;91279.50;2555820;23;20088;-84
2023/03/14 04:57:43;;;;;;;2.75;1.00;;;;;;;5.35;100.00;91275.91;2555634;23;20724;-84
2023/03/14 04:58:44;;;;;;;2.35;1.00;;;;;;;5.35;100.00;91283.84;2567726;22;20023;-82
2023/03/14 04:59:45;;;;;;;2.80;0.70;;;;;;;5.41;100.00;91281.41;2567995;23;20011;-86
2023/03/14 05:00:46;;;;;;;2.60;0.70;;;;;;;5.35;100.00;91278.56;2568107;22;20013;-83
2023/03/14 05:01:49;;;;;;;2.17;0.90;;;;;;;5.26;100.00;91275.81;2567644;23;20016;-84
2023/03/14 05:02:50;;;;;;;1.75;0.60;;;;;;;5.23;100.00;91282.72;2556175;23;20369;-84
2023/03/14 05:03:51;;;;;;;1.20;0.60;;;;;;;5.27;100.00;91278.06;2567608;23;20024;-84
2023/03/14 05:04:52;;;;;;;6.65;1.17;;;;;;;5.31;100.00;91275.28;2567802;23;20015;-84
2023/03/14 05:05:54;;;;;;;3.63;0.70;;;;;;;5.25;100.00;91272.44;2555663;23;20016;-84
2023/03/14 05:06:55;;;;;;;3.72;1.75;;;;;;;5.23;100.00;91269.47;2555739;23;20036;-85
2023/03/14 05:07:56;;;;;;;5.68;3.13;;;;;;;5.24;100.00;91278.16;2555634;23;20059;-81